sensor_id;sensor_type;location;lat;lon;timestamp;pressure;altitude;pressure_sealevel;temperature;humidity
13478;BME280;12598;62.382;17.344;2022-10-24T00:00:44;101336.88;;;19.08;23.15
13478;BME280;12598;62.382;17.344;2022-10-24T00:01:47;101426.84;;;19.68;23.24
13478;BME280;12598;62.382;17.344;2022-10-24T00:02:48;101415.13;;;19.50;23.50
13478;BME280;12598;62.382;17.344;2022-10-24T00:03:50;101314.03;;;18.94;23.69
13478;BME280;12598;62.382;17.344;2022-10-24T00:04:52;101281.03;;;18.75;23.34
13478;BME280;12598;62.382;17.344;2022-10-24T00:05:54;101362.75;;;19.28;23.51
13478;BME280;12598;62.382;17.344;2022-10-24T00:06:56;101403.97;;;19.45;23.54
13478;BME280;12598;62.382;17.344;2022-10-24T00:07:58;101454.94;;;19.74;23.76
13478;BME280;12598;62.382;17.344;2022-10-24T00:09:00;101352.19;;;19.17;23.40
13478;BME280;12598;62.382;17.344;2022-10-24T00:10:03;101447.88;;;19.73;23.34
13478;BME280;12598;62.382;17.344;2022-10-24T00:11:14;101361.34;;;19.24;23.52
13478;BME280;12598;62.382;17.344;2022-10-24T00:12:17;101319.41;;;18.94;23.21
13478;BME280;12598;62.382;17.344;2022-10-24T00:13:19;101419.66;;;19.50;23.17
13478;BME280;12598;62.382;17.344;2022-10-24T00:14:21;101410.03;;;19.47;23.23
13478;BME280;12598;62.382;17.344;2022-10-24T00:15:23;101387.47;;;19.22;23.57
13478;BME280;12598;62.382;17.344;2022-10-24T00:16:26;101419.34;;;19.43;23.34
13478;BME280;12598;62.382;17.344;2022-10-24T00:17:28;101453.53;;;19.70;23.59
13478;BME280;12598;62.382;17.344;2022-10-24T00:18:30;101440.66;;;19.54;23.56
13478;BME280;12598;62.382;17.344;2022-10-24T00:19:32;101336.28;;;18.85;23.63
13478;BME280;12598;62.382;17.344;2022-10-24T00:20:33;101408.47;;;19.36;23.43
13478;BME280;12598;62.382;17.344;2022-10-24T00:21:37;101435.16;;;19.46;23.30
13478;BME280;12598;62.382;17.344;2022-10-24T00:22:39;101322.03;;;18.75;23.29
13478;BME280;12598;62.382;17.344;2022-10-24T00:23:41;101384.59;;;19.14;23.56
13478;BME280;12598;62.382;17.344;2022-10-24T00:24:43;101437.56;;;19.40;23.41
13478;BME280;12598;62.382;17.344;2022-10-24T00:25:44;101364.66;;;18.88;23.67
13478;BME280;12598;62.382;17.344;2022-10-24T00:26:46;101446.88;;;19.45;23.35
13478;BME280;12598;62.382;17.344;2022-10-24T00:27:48;101430.66;;;19.38;23.26
13478;BME280;12598;62.382;17.344;2022-10-24T00:28:50;101427.84;;;19.39;23.58
13478;BME280;12598;62.382;17.344;2022-10-24T00:29:52;101452.25;;;19.45;23.66
13478;BME280;12598;62.382;17.344;2022-10-24T00:30:54;101351.53;;;18.85;23.25
13478;BME280;12598;62.382;17.344;2022-10-24T00:31:55;101414.69;;;19.27;23.73
13478;BME280;12598;62.382;17.344;2022-10-24T00:32:57;101425.56;;;19.35;23.36
13478;BME280;12598;62.382;17.344;2022-10-24T00:33:59;101460.28;;;19.45;23.37
13478;BME280;12598;62.382;17.344;2022-10-24T00:35:01;101401.16;;;19.19;23.50
13478;BME280;12598;62.382;17.344;2022-10-24T00:36:03;101449.16;;;19.50;23.58
13478;BME280;12598;62.382;17.344;2022-10-24T00:37:04;101425.56;;;19.35;23.45
13478;BME280;12598;62.382;17.344;2022-10-24T00:38:06;101426.97;;;19.38;23.69
13478;BME280;12598;62.382;17.344;2022-10-24T00:39:10;101443.50;;;19.43;23.65
13478;BME280;12598;62.382;17.344;2022-10-24T00:40:15;101469.06;;;19.57;23.06
13478;BME280;12598;62.382;17.344;2022-10-24T00:41:30;101464.41;;;19.59;23.93
13478;BME280;12598;62.382;17.344;2022-10-24T00:42:33;101451.69;;;19.51;23.32
13478;BME280;12598;62.382;17.344;2022-10-24T00:43:35;101418.09;;;19.29;23.56
13478;BME280;12598;62.382;17.344;2022-10-24T00:44:38;101473.31;;;19.59;23.66
13478;BME280;12598;62.382;17.344;2022-10-24T00:45:47;101463.69;;;19.57;23.87
13478;BME280;12598;62.382;17.344;2022-10-24T00:46:57;101450.72;;;19.43;23.41
13478;BME280;12598;62.382;17.344;2022-10-24T00:48:00;101448.72;;;19.45;23.57
13478;BME280;12598;62.382;17.344;2022-10-24T00:49:02;101438.56;;;19.39;23.20
13478;BME280;12598;62.382;17.344;2022-10-24T00:50:11;101433.59;;;19.35;23.33
13478;BME280;12598;62.382;17.344;2022-10-24T00:51:25;101385.72;;;19.11;23.61
13478;BME280;12598;62.382;17.344;2022-10-24T00:52:34;101324.69;;;18.66;23.46
13478;BME280;12598;62.382;17.344;2022-10-24T00:53:42;101449.00;;;19.42;23.65
13478;BME280;12598;62.382;17.344;2022-10-24T00:54:45;101449.00;;;19.42;23.35
13478;BME280;12598;62.382;17.344;2022-10-24T00:55:49;101480.91;;;19.54;23.64
13478;BME280;12598;62.382;17.344;2022-10-24T00:56:59;101475.53;;;19.54;23.21
13478;BME280;12598;62.382;17.344;2022-10-24T00:58:02;101456.47;;;19.38;23.42
13478;BME280;12598;62.382;17.344;2022-10-24T00:59:07;101415.53;;;19.18;23.38
13478;BME280;12598;62.382;17.344;2022-10-24T01:00:24;101477.50;;;19.52;23.26
13478;BME280;12598;62.382;17.344;2022-10-24T01:01:27;101461.69;;;19.49;23.66
13478;BME280;12598;62.382;17.344;2022-10-24T01:02:29;101387.09;;;19.06;23.65
13478;BME280;12598;62.382;17.344;2022-10-24T01:03:31;101326.09;;;18.70;23.35
13478;BME280;12598;62.382;17.344;2022-10-24T01:04:33;101405.31;;;19.12;23.63
13478;BME280;12598;62.382;17.344;2022-10-24T01:05:45;101382.56;;;18.97;23.43
13478;BME280;12598;62.382;17.344;2022-10-24T01:07:08;101400.09;;;19.10;23.25
13478;BME280;12598;62.382;17.344;2022-10-24T01:08:37;101467.50;;;19.54;23.77
13478;BME280;12598;62.382;17.344;2022-10-24T01:09:55;101466.25;;;19.58;23.77
13478;BME280;12598;62.382;17.344;2022-10-24T01:15:38;101467.94;;;19.59;23.53
13478;BME280;12598;62.382;17.344;2022-10-24T01:18:27;101466.94;;;19.51;23.49
13478;BME280;12598;62.382;17.344;2022-10-24T01:21:06;101465.69;;;19.55;23.44
13478;BME280;12598;62.382;17.344;2022-10-24T01:22:22;101432.03;;;19.32;23.46
13478;BME280;12598;62.382;17.344;2022-10-24T01:25:16;101458.03;;;19.50;23.58
13478;BME280;12598;62.382;17.344;2022-10-24T01:27:46;101421.88;;;19.26;23.81
13478;BME280;12598;62.382;17.344;2022-10-24T01:29:03;101404.94;;;19.16;23.03
13478;BME280;12598;62.382;17.344;2022-10-24T01:30:12;101394.16;;;19.07;23.69
13478;BME280;12598;62.382;17.344;2022-10-24T01:31:26;101394.72;;;19.01;23.54
13478;BME280;12598;62.382;17.344;2022-10-24T01:32:59;101467.50;;;19.45;23.59
13478;BME280;12598;62.382;17.344;2022-10-24T01:34:07;101413.78;;;19.07;23.37
13478;BME280;12598;62.382;17.344;2022-10-24T01:36:52;101448.13;;;19.32;23.54
13478;BME280;12598;62.382;17.344;2022-10-24T01:38:18;101464.38;;;19.49;23.56
13478;BME280;12598;62.382;17.344;2022-10-24T01:39:23;101430.06;;;19.25;23.45
13478;BME280;12598;62.382;17.344;2022-10-24T01:40:57;101470.75;;;19.48;23.65
13478;BME280;12598;62.382;17.344;2022-10-24T01:42:01;101423.56;;;19.18;23.37
13478;BME280;12598;62.382;17.344;2022-10-24T01:43:09;101453.50;;;19.32;23.48
13478;BME280;12598;62.382;17.344;2022-10-24T01:44:29;101452.38;;;19.35;23.29
13478;BME280;12598;62.382;17.344;2022-10-24T01:45:33;101382.75;;;18.95;23.49
13478;BME280;12598;62.382;17.344;2022-10-24T01:46:41;101397.56;;;18.99;23.39
13478;BME280;12598;62.382;17.344;2022-10-24T01:47:50;101399.78;;;19.04;23.65
13478;BME280;12598;62.382;17.344;2022-10-24T01:49:02;101407.56;;;19.07;23.41
13478;BME280;12598;62.382;17.344;2022-10-24T01:50:09;101352.06;;;18.69;23.50
13478;BME280;12598;62.382;17.344;2022-10-24T01:51:14;101455.06;;;19.35;23.36
13478;BME280;12598;62.382;17.344;2022-10-24T01:52:19;101417.28;;;19.08;23.58
13478;BME280;12598;62.382;17.344;2022-10-24T01:53:22;101421.94;;;19.06;23.84
13478;BME280;12598;62.382;17.344;2022-10-24T01:54:26;101441.91;;;19.22;23.60
13478;BME280;12598;62.382;17.344;2022-10-24T01:55:30;101441.63;;;19.16;23.39
13478;BME280;12598;62.382;17.344;2022-10-24T01:56:33;101440.16;;;19.12;23.54
13478;BME280;12598;62.382;17.344;2022-10-24T01:57:35;101434.94;;;19.10;23.43
13478;BME280;12598;62.382;17.344;2022-10-24T01:58:37;101329.16;;;18.46;23.66
13478;BME280;12598;62.382;17.344;2022-10-24T01:59:42;101461.97;;;19.28;23.55
13478;BME280;12598;62.382;17.344;2022-10-24T02:00:47;101389.19;;;18.83;23.62
13478;BME280;12598;62.382;17.344;2022-10-24T02:01:52;101417.28;;;19.08;23.64
13478;BME280;12598;62.382;17.344;2022-10-24T02:03:03;101421.81;;;19.07;23.46
13478;BME280;12598;62.382;17.344;2022-10-24T02:04:09;101423.53;;;19.08;23.66
13478;BME280;12598;62.382;17.344;2022-10-24T02:05:20;101437.22;;;19.15;23.75
13478;BME280;12598;62.382;17.344;2022-10-24T02:06:27;101402.19;;;18.97;23.82
13478;BME280;12598;62.382;17.344;2022-10-24T02:07:32;101350.06;;;18.62;23.68
13478;BME280;12598;62.382;17.344;2022-10-24T02:08:40;101457.31;;;19.30;23.21
13478;BME280;12598;62.382;17.344;2022-10-24T02:09:46;101380.00;;;18.76;23.44
13478;BME280;12598;62.382;17.344;2022-10-24T02:10:56;101437.22;;;19.15;23.46
13478;BME280;12598;62.382;17.344;2022-10-24T02:11:59;101324.97;;;18.53;23.51
13478;BME280;12598;62.382;17.344;2022-10-24T02:13:31;101427.75;;;19.11;23.51
13478;BME280;12598;62.382;17.344;2022-10-24T02:14:34;101456.06;;;19.34;23.09
13478;BME280;12598;62.382;17.344;2022-10-24T02:15:44;101352.06;;;18.69;23.35
13478;BME280;12598;62.382;17.344;2022-10-24T02:16:48;101445.56;;;19.21;23.57
13478;BME280;12598;62.382;17.344;2022-10-24T02:17:51;101360.22;;;18.68;23.53
13478;BME280;12598;62.382;17.344;2022-10-24T02:18:55;101456.88;;;19.25;23.59
13478;BME280;12598;62.382;17.344;2022-10-24T02:19:58;101426.03;;;19.10;23.26
13478;BME280;12598;62.382;17.344;2022-10-24T02:22:58;101432.88;;;19.23;23.26
13478;BME280;12598;62.382;17.344;2022-10-24T02:25:23;101417.72;;;19.13;23.41
13478;BME280;12598;62.382;17.344;2022-10-24T02:27:39;101405.44;;;19.01;23.32
13478;BME280;12598;62.382;17.344;2022-10-24T02:28:44;101455.75;;;19.27;23.17
13478;BME280;12598;62.382;17.344;2022-10-24T02:30:00;101421.94;;;19.06;23.31
13478;BME280;12598;62.382;17.344;2022-10-24T02:31:08;101426.75;;;19.12;23.56
13478;BME280;12598;62.382;17.344;2022-10-24T02:32:17;101406.56;;;18.98;23.58
13478;BME280;12598;62.382;17.344;2022-10-24T02:33:20;101422.66;;;19.08;23.53
13478;BME280;12598;62.382;17.344;2022-10-24T02:34:24;101448.25;;;19.21;23.60
13478;BME280;12598;62.382;17.344;2022-10-24T02:35:31;101409.09;;;19.00;23.55
13478;BME280;12598;62.382;17.344;2022-10-24T02:36:37;101444.75;;;19.21;23.44
13478;BME280;12598;62.382;17.344;2022-10-24T02:37:43;101446.72;;;19.19;23.50
13478;BME280;12598;62.382;17.344;2022-10-24T02:38:49;101431.41;;;19.10;23.43
13478;BME280;12598;62.382;17.344;2022-10-24T02:39:54;101439.44;;;19.10;23.52
13478;BME280;12598;62.382;17.344;2022-10-24T02:40:58;101443.97;;;19.09;23.51
13478;BME280;12598;62.382;17.344;2022-10-24T02:42:03;101395.50;;;18.82;23.38
13478;BME280;12598;62.382;17.344;2022-10-24T02:43:06;101366.16;;;18.71;23.14
13478;BME280;12598;62.382;17.344;2022-10-24T02:44:11;101417.41;;;18.97;23.49
13478;BME280;12598;62.382;17.344;2022-10-24T02:45:14;101427.88;;;19.00;23.28
13478;BME280;12598;62.382;17.344;2022-10-24T02:46:17;101382.66;;;18.76;23.75
13478;BME280;12598;62.382;17.344;2022-10-24T02:47:22;101306.31;;;18.33;23.44
13478;BME280;12598;62.382;17.344;2022-10-24T02:48:29;101414.19;;;18.93;23.57
13478;BME280;12598;62.382;17.344;2022-10-24T02:49:33;101433.94;;;19.02;23.33
13478;BME280;12598;62.382;17.344;2022-10-24T02:50:38;101318.00;;;18.32;23.55
13478;BME280;12598;62.382;17.344;2022-10-24T02:51:42;101417.81;;;18.92;23.52
13478;BME280;12598;62.382;17.344;2022-10-24T02:52:45;101457.72;;;19.16;23.50
13478;BME280;12598;62.382;17.344;2022-10-24T02:53:48;101411.91;;;18.89;23.36
13478;BME280;12598;62.382;17.344;2022-10-24T02:54:50;101394.13;;;18.88;23.37
13478;BME280;12598;62.382;17.344;2022-10-24T02:55:52;101411.06;;;18.98;23.70
13478;BME280;12598;62.382;17.344;2022-10-24T02:56:58;101420.25;;;18.95;23.44
13478;BME280;12598;62.382;17.344;2022-10-24T02:58:00;101413.31;;;18.93;23.31
13478;BME280;12598;62.382;17.344;2022-10-24T02:59:02;101391.31;;;18.89;23.15
13478;BME280;12598;62.382;17.344;2022-10-24T03:00:05;101404.56;;;18.91;23.33
13478;BME280;12598;62.382;17.344;2022-10-24T03:01:07;101408.81;;;18.93;23.46
13478;BME280;12598;62.382;17.344;2022-10-24T03:02:09;101457.09;;;19.12;23.20
13478;BME280;12598;62.382;17.344;2022-10-24T03:03:11;101365.16;;;18.63;23.33
13478;BME280;12598;62.382;17.344;2022-10-24T03:04:13;101398.78;;;18.86;23.46
13478;BME280;12598;62.382;17.344;2022-10-24T03:05:15;101426.72;;;18.93;23.51
13478;BME280;12598;62.382;17.344;2022-10-24T03:06:17;101404.25;;;18.84;23.39
13478;BME280;12598;62.382;17.344;2022-10-24T03:07:19;101393.69;;;18.83;23.43
13478;BME280;12598;62.382;17.344;2022-10-24T03:08:21;101400.59;;;18.85;23.32
13478;BME280;12598;62.382;17.344;2022-10-24T03:09:22;101452.03;;;19.09;23.40
13478;BME280;12598;62.382;17.344;2022-10-24T03:10:24;101409.22;;;18.89;23.28
13478;BME280;12598;62.382;17.344;2022-10-24T03:11:26;101330.00;;;18.47;23.45
13478;BME280;12598;62.382;17.344;2022-10-24T03:12:28;101365.84;;;18.65;23.17
13478;BME280;12598;62.382;17.344;2022-10-24T03:13:30;101436.06;;;19.08;23.66
13478;BME280;12598;62.382;17.344;2022-10-24T03:14:32;101410.75;;;18.91;23.33
13478;BME280;12598;62.382;17.344;2022-10-24T03:15:34;101395.41;;;18.84;23.35
13478;BME280;12598;62.382;17.344;2022-10-24T03:16:36;101347.22;;;18.54;23.41
13478;BME280;12598;62.382;17.344;2022-10-24T03:17:37;101364.16;;;18.64;23.22
13478;BME280;12598;62.382;17.344;2022-10-24T03:18:39;101304.88;;;18.29;23.28
13478;BME280;12598;62.382;17.344;2022-10-24T03:19:41;101378.47;;;18.74;23.31
13478;BME280;12598;62.382;17.344;2022-10-24T03:20:43;101317.00;;;18.33;23.39
13478;BME280;12598;62.382;17.344;2022-10-24T03:21:45;101370.38;;;18.64;23.55
13478;BME280;12598;62.382;17.344;2022-10-24T03:22:47;101397.75;;;18.77;23.37
13478;BME280;12598;62.382;17.344;2022-10-24T03:23:49;101419.06;;;18.88;23.61
13478;BME280;12598;62.382;17.344;2022-10-24T03:24:51;101414.19;;;18.93;23.46
13478;BME280;12598;62.382;17.344;2022-10-24T03:25:57;101376.56;;;18.65;23.16
13478;BME280;12598;62.382;17.344;2022-10-24T03:26:59;101363.72;;;18.59;23.51
13478;BME280;12598;62.382;17.344;2022-10-24T03:28:01;101378.97;;;18.68;23.49
13478;BME280;12598;62.382;17.344;2022-10-24T03:29:02;101409.34;;;18.87;23.45
13478;BME280;12598;62.382;17.344;2022-10-24T03:30:05;101384.75;;;18.63;23.43
13478;BME280;12598;62.382;17.344;2022-10-24T03:31:07;101355.66;;;18.49;23.49
13478;BME280;12598;62.382;17.344;2022-10-24T03:32:09;101425.56;;;18.86;23.33
13478;BME280;12598;62.382;17.344;2022-10-24T03:33:11;101325.69;;;18.25;23.29
13478;BME280;12598;62.382;17.344;2022-10-24T03:34:13;101423.44;;;18.80;23.49
13478;BME280;12598;62.382;17.344;2022-10-24T03:35:15;101402.81;;;18.71;23.39
13478;BME280;12598;62.382;17.344;2022-10-24T03:36:17;101389.25;;;18.63;23.43
13478;BME280;12598;62.382;17.344;2022-10-24T03:37:19;101431.22;;;18.83;23.20
13478;BME280;12598;62.382;17.344;2022-10-24T03:38:22;101414.53;;;18.79;23.27
13478;BME280;12598;62.382;17.344;2022-10-24T03:39:24;101357.78;;;18.46;23.41
13478;BME280;12598;62.382;17.344;2022-10-24T03:40:26;101375.41;;;18.58;23.39
13478;BME280;12598;62.382;17.344;2022-10-24T03:41:27;101377.38;;;18.56;23.17
13478;BME280;12598;62.382;17.344;2022-10-24T03:42:29;101449.47;;;18.98;23.99
13478;BME280;12598;62.382;17.344;2022-10-24T03:43:31;101473.44;;;19.00;23.31
13478;BME280;12598;62.382;17.344;2022-10-24T03:44:33;101383.03;;;18.53;23.56
13478;BME280;12598;62.382;17.344;2022-10-24T03:45:35;101432.19;;;18.82;23.12
13478;BME280;12598;62.382;17.344;2022-10-24T03:46:38;101398.00;;;18.65;23.28
13478;BME280;12598;62.382;17.344;2022-10-24T03:47:39;101408.16;;;18.71;23.30
13478;BME280;12598;62.382;17.344;2022-10-24T03:48:41;101407.94;;;18.74;23.44
13478;BME280;12598;62.382;17.344;2022-10-24T03:49:43;101295.31;;;18.06;23.46
13478;BME280;12598;62.382;17.344;2022-10-24T03:50:45;101407.78;;;18.75;23.42
13478;BME280;12598;62.382;17.344;2022-10-24T03:51:46;101385.88;;;18.61;23.22
13478;BME280;12598;62.382;17.344;2022-10-24T03:52:48;101390.41;;;18.70;23.50
13478;BME280;12598;62.382;17.344;2022-10-24T03:53:50;101287.66;;;18.01;23.55
13478;BME280;12598;62.382;17.344;2022-10-24T03:54:52;101447.75;;;18.97;23.38
13478;BME280;12598;62.382;17.344;2022-10-24T03:55:54;101399.41;;;18.69;23.25
13478;BME280;12598;62.382;17.344;2022-10-24T03:56:58;101403.41;;;18.74;23.51
13478;BME280;12598;62.382;17.344;2022-10-24T03:57:59;101430.22;;;18.84;23.21
13478;BME280;12598;62.382;17.344;2022-10-24T03:59:01;101393.34;;;18.67;23.30
13478;BME280;12598;62.382;17.344;2022-10-24T04:00:04;101377.00;;;18.60;23.44
13478;BME280;12598;62.382;17.344;2022-10-24T04:01:06;101397.44;;;18.71;23.39
13478;BME280;12598;62.382;17.344;2022-10-24T04:02:10;101355.66;;;18.49;23.68
13478;BME280;12598;62.382;17.344;2022-10-24T04:03:13;101366.94;;;18.53;23.55
13478;BME280;12598;62.382;17.344;2022-10-24T04:04:15;101434.50;;;18.96;23.35
13478;BME280;12598;62.382;17.344;2022-10-24T04:05:17;101400.13;;;18.71;23.49
13478;BME280;12598;62.382;17.344;2022-10-24T04:06:19;101413.84;;;18.77;23.28
13478;BME280;12598;62.382;17.344;2022-10-24T04:07:20;101381.50;;;18.60;23.44
13478;BME280;12598;62.382;17.344;2022-10-24T04:08:22;101397.00;;;18.66;23.44
13478;BME280;12598;62.382;17.344;2022-10-24T04:09:24;101405.63;;;18.69;23.61
13478;BME280;12598;62.382;17.344;2022-10-24T04:10:26;101405.47;;;18.71;23.58
13478;BME280;12598;62.382;17.344;2022-10-24T04:11:28;101399.28;;;18.70;23.54
13478;BME280;12598;62.382;17.344;2022-10-24T04:12:31;101440.13;;;18.93;23.29
13478;BME280;12598;62.382;17.344;2022-10-24T04:13:33;101382.34;;;18.60;23.52
13478;BME280;12598;62.382;17.344;2022-10-24T04:14:35;101411.81;;;18.70;23.62
13478;BME280;12598;62.382;17.344;2022-10-24T04:15:36;101388.53;;;18.61;23.59
13478;BME280;12598;62.382;17.344;2022-10-24T04:16:38;101313.81;;;18.18;23.61
13478;BME280;12598;62.382;17.344;2022-10-24T04:17:41;101405.06;;;18.66;23.66
13478;BME280;12598;62.382;17.344;2022-10-24T04:18:43;101405.25;;;18.74;23.49
13478;BME280;12598;62.382;17.344;2022-10-24T04:19:45;101360.72;;;18.43;23.62
13478;BME280;12598;62.382;17.344;2022-10-24T04:20:47;101438.44;;;18.92;23.63
13478;BME280;12598;62.382;17.344;2022-10-24T04:21:48;101368.09;;;18.50;23.30
13478;BME280;12598;62.382;17.344;2022-10-24T04:22:50;101419.06;;;18.79;23.47
13478;BME280;12598;62.382;17.344;2022-10-24T04:23:52;101436.03;;;18.89;23.21
13478;BME280;12598;62.382;17.344;2022-10-24T04:24:54;101272.31;;;17.94;23.76
13478;BME280;12598;62.382;17.344;2022-10-24T04:25:56;101418.38;;;18.77;23.46
13478;BME280;12598;62.382;17.344;2022-10-24T04:26:57;101400.13;;;18.71;23.32
13478;BME280;12598;62.382;17.344;2022-10-24T04:27:59;101445.75;;;18.90;23.63
13478;BME280;12598;62.382;17.344;2022-10-24T04:29:01;101362.25;;;18.45;23.24
13478;BME280;12598;62.382;17.344;2022-10-24T04:30:03;101405.75;;;18.68;23.38
13478;BME280;12598;62.382;17.344;2022-10-24T04:31:06;101432.63;;;18.87;23.43
13478;BME280;12598;62.382;17.344;2022-10-24T04:32:07;101399.56;;;18.67;23.69
13478;BME280;12598;62.382;17.344;2022-10-24T04:33:09;101390.38;;;18.60;23.66
13478;BME280;12598;62.382;17.344;2022-10-24T04:34:11;101403.78;;;18.70;23.56
13478;BME280;12598;62.382;17.344;2022-10-24T04:35:13;101383.91;;;18.63;23.45
13478;BME280;12598;62.382;17.344;2022-10-24T04:36:15;101414.13;;;18.74;23.47
13478;BME280;12598;62.382;17.344;2022-10-24T04:37:17;101378.81;;;18.60;23.75
13478;BME280;12598;62.382;17.344;2022-10-24T04:38:19;101389.97;;;18.65;23.62
13478;BME280;12598;62.382;17.344;2022-10-24T04:39:20;101398.59;;;18.68;23.45
13478;BME280;12598;62.382;17.344;2022-10-24T04:40:22;101426.56;;;18.85;23.33
13478;BME280;12598;62.382;17.344;2022-10-24T04:41:24;101419.47;;;18.74;23.66
13478;BME280;12598;62.382;17.344;2022-10-24T04:42:26;101422.31;;;18.73;23.60
13478;BME280;12598;62.382;17.344;2022-10-24T04:43:27;101420.84;;;18.69;23.82
13478;BME280;12598;62.382;17.344;2022-10-24T04:44:29;101355.91;;;18.37;23.90
13478;BME280;12598;62.382;17.344;2022-10-24T04:45:31;101302.63;;;18.04;23.82
13478;BME280;12598;62.382;17.344;2022-10-24T04:46:33;101392.63;;;18.55;23.68
13478;BME280;12598;62.382;17.344;2022-10-24T04:47:35;101385.00;;;18.51;24.00
13478;BME280;12598;62.382;17.344;2022-10-24T04:48:37;101384.59;;;18.55;23.62
13478;BME280;12598;62.382;17.344;2022-10-24T04:49:39;101432.91;;;18.84;23.65
13478;BME280;12598;62.382;17.344;2022-10-24T04:50:42;101418.06;;;18.70;23.51
13478;BME280;12598;62.382;17.344;2022-10-24T04:51:46;101337.84;;;18.29;23.61
13478;BME280;12598;62.382;17.344;2022-10-24T04:52:48;101303.06;;;18.09;23.76
13478;BME280;12598;62.382;17.344;2022-10-24T04:53:49;101346.97;;;18.27;23.76
13478;BME280;12598;62.382;17.344;2022-10-24T04:54:51;101376.25;;;18.49;23.83
13478;BME280;12598;62.382;17.344;2022-10-24T04:55:53;101408.59;;;18.66;23.71
13478;BME280;12598;62.382;17.344;2022-10-24T04:56:55;101420.03;;;18.68;23.92
13478;BME280;12598;62.382;17.344;2022-10-24T04:57:57;101398.25;;;18.52;23.61
13478;BME280;12598;62.382;17.344;2022-10-24T04:58:59;101403.47;;;18.54;23.69
13478;BME280;12598;62.382;17.344;2022-10-24T05:00:01;101338.28;;;18.14;24.08
13478;BME280;12598;62.382;17.344;2022-10-24T05:01:03;101440.84;;;18.65;23.85
13478;BME280;12598;62.382;17.344;2022-10-24T05:02:05;101345.94;;;18.18;23.62
13478;BME280;12598;62.382;17.344;2022-10-24T05:03:06;101406.84;;;18.56;24.09
13478;BME280;12598;62.382;17.344;2022-10-24T05:04:08;101419.44;;;18.65;23.70
13478;BME280;12598;62.382;17.344;2022-10-24T05:05:11;101306.81;;;17.97;23.60
13478;BME280;12598;62.382;17.344;2022-10-24T05:06:12;101410.06;;;18.50;23.89
13478;BME280;12598;62.382;17.344;2022-10-24T05:07:15;101307.22;;;17.92;23.58
13478;BME280;12598;62.382;17.344;2022-10-24T05:08:17;101444.88;;;18.80;23.60
13478;BME280;12598;62.382;17.344;2022-10-24T05:09:19;101309.63;;;17.95;23.95
13478;BME280;12598;62.382;17.344;2022-10-24T05:10:20;101283.56;;;17.88;23.68
13478;BME280;12598;62.382;17.344;2022-10-24T05:11:22;101363.78;;;18.38;23.43
13478;BME280;12598;62.382;17.344;2022-10-24T05:12:24;101430.34;;;18.73;23.67
13478;BME280;12598;62.382;17.344;2022-10-24T05:13:26;101409.84;;;18.62;23.53
13478;BME280;12598;62.382;17.344;2022-10-24T05:14:34;101383.88;;;18.53;23.45
13478;BME280;12598;62.382;17.344;2022-10-24T05:15:36;101440.09;;;18.83;23.67
13478;BME280;12598;62.382;17.344;2022-10-24T05:16:38;101368.22;;;18.49;23.35
13478;BME280;12598;62.382;17.344;2022-10-24T05:17:40;101402.81;;;18.71;23.48
13478;BME280;12598;62.382;17.344;2022-10-24T05:18:42;101404.09;;;18.76;23.43
13478;BME280;12598;62.382;17.344;2022-10-24T05:19:43;101419.34;;;18.85;23.48
13478;BME280;12598;62.382;17.344;2022-10-24T05:20:45;101281.66;;;18.09;23.39
13478;BME280;12598;62.382;17.344;2022-10-24T05:21:47;101400.88;;;18.73;23.53
13478;BME280;12598;62.382;17.344;2022-10-24T05:22:49;101407.81;;;18.85;23.22
13478;BME280;12598;62.382;17.344;2022-10-24T05:23:52;101445.66;;;19.10;23.12
13478;BME280;12598;62.382;17.344;2022-10-24T05:24:54;101437.91;;;19.07;22.97
13478;BME280;12598;62.382;17.344;2022-10-24T05:25:56;101393.16;;;18.89;23.51
13478;BME280;12598;62.382;17.344;2022-10-24T05:26:57;101396.53;;;18.91;22.95
13478;BME280;12598;62.382;17.344;2022-10-24T05:27:59;101328.88;;;18.49;23.16
13478;BME280;12598;62.382;17.344;2022-10-24T05:29:01;101239.09;;;18.06;22.93
13478;BME280;12598;62.382;17.344;2022-10-24T05:30:03;101288.28;;;18.35;23.33
13478;BME280;12598;62.382;17.344;2022-10-24T05:31:05;101298.16;;;18.44;23.31
13478;BME280;12598;62.382;17.344;2022-10-24T05:32:07;101395.16;;;19.06;23.24
13478;BME280;12598;62.382;17.344;2022-10-24T05:33:09;101331.03;;;18.65;22.64
13478;BME280;12598;62.382;17.344;2022-10-24T05:34:11;101423.72;;;19.26;22.66
13478;BME280;12598;62.382;17.344;2022-10-24T05:35:13;101264.88;;;18.37;22.57
13478;BME280;12598;62.382;17.344;2022-10-24T05:36:15;101413.84;;;19.26;22.89
13478;BME280;12598;62.382;17.344;2022-10-24T05:37:17;101418.50;;;19.34;23.03
13478;BME280;12598;62.382;17.344;2022-10-24T05:38:19;101414.69;;;19.27;22.70
13478;BME280;12598;62.382;17.344;2022-10-24T05:39:20;101414.13;;;19.33;22.96
13478;BME280;12598;62.382;17.344;2022-10-24T05:40:23;101405.50;;;19.29;22.86
13478;BME280;12598;62.382;17.344;2022-10-24T05:41:25;101378.13;;;19.16;22.65
13478;BME280;12598;62.382;17.344;2022-10-24T05:42:26;101314.31;;;18.82;22.52
13478;BME280;12598;62.382;17.344;2022-10-24T05:43:28;101340.84;;;19.04;22.58
13478;BME280;12598;62.382;17.344;2022-10-24T05:44:30;101379.56;;;19.30;22.92
13478;BME280;12598;62.382;17.344;2022-10-24T05:45:32;101371.34;;;19.31;22.59
13478;BME280;12598;62.382;17.344;2022-10-24T05:46:34;101394.78;;;19.38;22.49
13478;BME280;12598;62.382;17.344;2022-10-24T05:47:35;101284.69;;;18.83;22.44